Time;durP1;ratioP1;P1;durP2;ratioP2;P2;SDS_P1;SDS_P2;PMS_P1;PMS_P2;Temp;Humidity;BMP_temperature;BMP_pressure;BME280_temperature;BME280_humidity;BME280_pressure;Samples;Min_cycle;Max_cycle;Signal;HPM_P1;HPM_P2
2020/12/24 00:00:36;;;;;;;1.38;0.60;;;;;;;11.15;74.44;99501.41;9742409;28;20054;-63
2020/12/24 00:05:38;;;;;;;3.85;0.98;;;;;;;11.07;73.72;99503.97;9730703;28;20481;-63
2020/12/24 00:10:39;;;;;;;1.95;0.45;;;;;;;11.04;70.68;99496.28;9760199;28;20105;-63
2020/12/24 00:15:41;;;;;;;3.03;0.45;;;;;;;10.99;70.20;99494.06;9771000;28;24516;-65
2020/12/24 00:20:52;;;;;;;2.60;0.40;;;;;;;10.81;68.64;99483.31;9793499;28;20158;-65
2020/12/24 00:25:54;;;;;;;1.95;0.30;;;;;;;10.76;70.70;99502.38;9752376;28;20131;-64
2020/12/24 00:30:55;;;;;;;2.22;0.43;;;;;;;10.60;68.65;99487.00;9775441;28;20047;-64
2020/12/24 00:35:56;;;;;;;2.70;0.40;;;;;;;10.62;69.23;99502.81;9774279;28;20061;-64
2020/12/24 00:40:57;;;;;;;2.17;0.50;;;;;;;10.67;70.39;99524.50;9773262;28;20051;-63
2020/12/24 00:45:59;;;;;;;2.70;0.65;;;;;;;10.60;70.55;99489.66;9753690;28;20062;-63
2020/12/24 00:51:09;;;;;;;3.58;0.65;;;;;;;10.45;70.29;99483.09;9764483;28;20504;-63
2020/12/24 00:56:10;;;;;;;1.63;0.50;;;;;;;10.58;71.17;99514.72;9782829;28;20055;-63
2020/12/24 01:01:12;;;;;;;2.78;0.50;;;;;;;10.52;69.66;99533.91;9761033;28;20062;-64
2020/12/24 01:06:13;;;;;;;5.18;0.80;;;;;;;10.48;70.37;99522.72;9745632;28;20533;-62
2020/12/24 01:11:15;;;;;;;2.08;1.13;;;;;;;10.43;68.97;99522.28;9766984;28;20067;-63
2020/12/24 01:16:16;;;;;;;5.50;0.80;;;;;;;10.17;68.92;99485.59;9752293;28;20121;-64
2020/12/24 01:21:31;;;;;;;1.98;0.80;;;;;;;10.29;69.36;99541.31;9707958;29;20095;-65
2020/12/24 01:26:32;;;;;;;4.05;0.95;;;;;;;10.29;69.59;99522.69;9750635;28;20052;-63
2020/12/24 01:31:34;;;;;;;3.83;1.02;;;;;;;10.16;68.92;99493.69;9732859;28;20142;-65
2020/12/24 01:36:35;;;;;;;5.68;1.10;;;;;;;10.25;69.34;99522.13;9726019;28;20099;-62
2020/12/24 01:41:36;;;;;;;6.18;0.60;;;;;;;10.30;69.47;99543.84;9738925;28;20070;-63
2020/12/24 01:46:37;;;;;;;5.38;1.05;;;;;;;10.19;68.10;99544.81;9734562;28;22151;-64
2020/12/24 01:51:56;;;;;;;6.93;1.00;;;;;;;10.05;69.68;99523.94;9711768;29;20614;-65
2020/12/24 01:56:58;;;;;;;3.22;1.00;;;;;;;9.86;68.41;99520.28;9730883;28;20051;-64
2020/12/24 02:01:59;;;;;;;4.00;1.10;;;;;;;9.80;69.23;99510.16;9745373;28;23934;-64
2020/12/24 02:07:00;;;;;;;4.53;1.05;;;;;;;9.87;68.86;99531.72;9721300;28;20089;-64
2020/12/24 02:12:03;;;;;;;3.03;0.95;;;;;;;9.78;69.15;99485.53;9738221;28;20050;-64
2020/12/24 02:17:04;;;;;;;4.78;1.48;;;;;;;9.89;68.62;99504.03;9728209;28;20068;-64
2020/12/24 02:22:11;;;;;;;4.50;0.80;;;;;;;9.91;68.38;99520.69;9737391;28;20062;-63
2020/12/24 02:27:12;;;;;;;4.40;0.70;;;;;;;9.82;67.95;99518.84;9759701;28;20059;-63
2020/12/24 02:32:13;;;;;;;2.70;0.82;;;;;;;9.75;68.71;99501.75;9738648;28;20063;-62
2020/12/24 02:37:14;;;;;;;4.55;1.23;;;;;;;9.65;68.82;99490.28;9779486;28;23713;-62
2020/12/24 02:42:16;;;;;;;4.00;0.93;;;;;;;9.62;67.63;99485.22;9753351;28;20129;-63
2020/12/24 02:47:17;;;;;;;4.43;0.93;;;;;;;9.61;68.54;99492.38;9762292;28;20055;-63
2020/12/24 02:52:30;;;;;;;3.80;0.90;;;;;;;9.60;68.19;99481.88;9778970;28;20055;-64
2020/12/24 02:57:31;;;;;;;5.40;1.38;;;;;;;9.55;68.09;99480.47;9762305;28;20078;-64
2020/12/24 03:02:38;;;;;;;5.68;1.77;;;;;;;9.53;68.47;99478.91;9737719;28;20085;-64
2020/12/24 03:07:39;;;;;;;6.90;1.65;;;;;;;9.43;68.74;99455.00;9778515;28;20059;-63
2020/12/24 03:12:41;;;;;;;6.72;1.70;;;;;;;9.51;68.86;99460.44;9797408;28;20441;-63
2020/12/24 03:17:42;;;;;;;3.25;1.23;;;;;;;9.55;68.94;99461.03;9770105;28;20075;-65
2020/12/24 03:22:50;;;;;;;2.90;1.00;;;;;;;9.52;70.34;99467.44;9746338;28;20063;-63
2020/12/24 03:27:51;;;;;;;4.07;1.02;;;;;;;9.50;69.52;99464.09;9739878;28;20055;-64
2020/12/24 03:32:52;;;;;;;7.10;1.40;;;;;;;9.49;69.21;99462.41;9743274;28;21489;-63
2020/12/24 03:37:53;;;;;;;6.38;1.38;;;;;;;9.35;68.85;99460.13;9743011;28;20076;-64
2020/12/24 03:42:55;;;;;;;3.53;1.13;;;;;;;9.28;68.51;99466.97;9744354;28;20498;-63
2020/12/24 03:47:56;;;;;;;6.05;1.55;;;;;;;9.28;67.97;99469.63;9724004;28;20063;-64
2020/12/24 03:53:10;;;;;;;4.78;1.60;;;;;;;9.25;67.95;99456.59;9740418;28;20050;-64
2020/12/24 03:58:11;;;;;;;4.05;1.38;;;;;;;9.23;67.76;99447.94;9747954;28;20062;-63
2020/12/24 04:03:12;;;;;;;6.55;1.55;;;;;;;9.26;68.08;99439.69;9747287;28;20058;-63
2020/12/24 04:08:13;;;;;;;5.45;1.33;;;;;;;9.06;67.57;99426.34;9736386;28;20047;-64
2020/12/24 04:13:15;;;;;;;4.50;1.55;;;;;;;8.99;68.72;99419.88;9747850;28;24583;-66
2020/12/24 04:18:17;;;;;;;5.13;1.42;;;;;;;8.90;68.78;99410.91;9765853;28;20653;-65
2020/12/24 04:23:30;;;;;;;5.13;1.27;;;;;;;8.90;69.50;99420.69;9777139;28;20050;-64
2020/12/24 04:28:31;;;;;;;5.60;1.25;;;;;;;8.83;68.79;99412.44;9757543;28;20183;-65
2020/12/24 04:33:32;;;;;;;5.57;1.50;;;;;;;8.81;69.05;99415.22;9763421;28;20703;-65
2020/12/24 04:38:34;;;;;;;6.95;1.50;;;;;;;8.69;68.76;99402.16;9775890;28;20105;-64
2020/12/24 04:43:36;;;;;;;6.00;1.30;;;;;;;8.74;68.54;99402.63;9763393;28;20051;-64
2020/12/24 04:48:39;;;;;;;4.68;0.90;;;;;;;8.77;68.94;99394.41;9747351;28;20058;-64
2020/12/24 04:53:50;;;;;;;1.95;0.98;;;;;;;8.78;67.97;99394.25;9776634;28;22001;-65
2020/12/24 04:58:53;;;;;;;6.07;1.80;;;;;;;8.81;68.26;99387.81;9789935;28;20114;-63
2020/12/24 05:03:55;;;;;;;5.78;1.08;;;;;;;8.75;68.14;99381.25;9757866;28;20062;-63
2020/12/24 05:08:58;;;;;;;4.57;1.33;;;;;;;8.78;68.50;99381.00;9774128;28;21334;-64
2020/12/24 05:14:26;;;;;;;4.10;1.10;;;;;;;8.87;68.27;99383.81;9888874;28;20055;-64
2020/12/24 05:19:30;;;;;;;7.03;1.60;;;;;;;8.81;68.01;99369.25;9711917;28;20930;-63
2020/12/24 05:24:34;;;;;;;8.10;1.53;;;;;;;8.82;68.71;99360.31;9698578;28;20124;-63
2020/12/24 05:29:40;;;;;;;2.45;0.95;;;;;;;8.85;68.66;99355.56;9742826;29;20483;-64
2020/12/24 05:34:41;;;;;;;8.63;1.45;;;;;;;8.81;68.10;99342.72;9708931;29;20107;-64
2020/12/24 05:39:45;;;;;;;5.85;1.67;;;;;;;8.79;68.35;99353.47;9763286;28;21059;-65
2020/12/24 05:44:49;;;;;;;5.03;1.60;;;;;;;8.54;69.31;99306.16;9743776;28;24859;-64
2020/12/24 05:49:50;;;;;;;4.03;1.20;;;;;;;8.80;70.62;99357.81;9696711;28;20803;-63
2020/12/24 05:54:51;;;;;;;4.97;1.23;;;;;;;8.70;72.85;99356.94;9688411;28;20051;-65
2020/12/24 05:59:55;;;;;;;6.20;1.65;;;;;;;8.63;74.84;99351.31;9707367;28;20099;-63
2020/12/24 06:05:05;;;;;;;7.10;1.77;;;;;;;8.53;76.21;99349.56;9685236;28;20055;-64
2020/12/24 06:10:09;;;;;;;7.97;1.63;;;;;;;8.53;76.58;99325.69;9713118;28;20058;-64
2020/12/24 06:15:16;;;;;;;6.43;1.30;;;;;;;8.53;77.48;99341.63;9724833;28;20059;-64
2020/12/24 06:20:19;;;;;;;5.95;1.20;;;;;;;8.48;77.22;99332.28;9739057;28;20517;-64
2020/12/24 06:25:20;;;;;;;4.70;1.20;;;;;;;8.10;77.69;99280.69;9764206;28;20829;-62
2020/12/24 06:30:26;;;;;;;6.00;1.40;;;;;;;8.37;77.99;99334.13;9722414;28;20051;-63
2020/12/24 06:35:41;;;;;;;6.15;1.88;;;;;;;8.36;78.70;99335.97;9725937;28;20051;-64
2020/12/24 06:40:43;;;;;;;8.35;1.40;;;;;;;8.41;78.09;99328.44;9782667;28;20047;-64
2020/12/24 06:45:44;;;;;;;6.13;1.52;;;;;;;8.34;79.05;99339.69;9753706;28;22284;-64
2020/12/24 06:50:47;;;;;;;11.15;1.92;;;;;;;8.28;79.37;99341.06;9758283;28;20058;-65
2020/12/24 06:56:13;;;;;;;2.92;1.08;;;;;;;8.22;80.14;99342.41;9761663;28;20055;-65
2020/12/24 07:01:17;;;;;;;5.07;1.65;;;;;;;8.21;80.81;99339.91;9751210;28;20062;-63
2020/12/24 07:06:40;;;;;;;4.90;1.10;;;;;;;8.09;81.34;99342.63;9741215;28;20904;-64
2020/12/24 07:11:52;;;;;;;4.20;1.50;;;;;;;8.00;81.21;99334.59;9738376;28;20051;-65
2020/12/24 07:16:55;;;;;;;6.35;2.13;;;;;;;7.94;82.25;99335.97;9732492;28;20098;-64
2020/12/24 07:21:57;;;;;;;5.85;1.95;;;;;;;7.91;83.14;99333.56;9732732;28;20152;-64
2020/12/24 07:27:01;;;;;;;6.00;1.27;;;;;;;8.03;82.86;99337.84;9752655;28;20062;-64
2020/12/24 07:32:07;;;;;;;5.80;1.45;;;;;;;8.03;82.94;99352.91;9720482;28;20059;-64
2020/12/24 07:37:09;;;;;;;5.47;1.20;;;;;;;7.98;83.30;99342.69;9733954;28;20066;-65
2020/12/24 07:42:11;;;;;;;6.70;0.88;;;;;;;8.02;82.57;99340.63;9730274;28;20190;-65
2020/12/24 07:47:14;;;;;;;5.25;1.38;;;;;;;8.03;83.32;99358.19;9734423;28;20051;-65
2020/12/24 07:52:16;;;;;;;5.05;1.58;;;;;;;8.00;84.85;99353.16;9826620;28;20145;-65
2020/12/24 07:57:22;;;;;;;5.35;1.50;;;;;;;8.07;84.50;99349.84;9865039;28;20126;-65
2020/12/24 08:02:23;;;;;;;10.23;1.55;;;;;;;7.94;85.37;99334.16;9791813;28;20062;-65
2020/12/24 08:07:25;;;;;;;5.80;1.42;;;;;;;8.00;86.38;99363.75;9764703;28;20055;-66
2020/12/24 08:12:26;;;;;;;3.83;1.38;;;;;;;8.06;86.20;99352.63;9734407;28;20480;-65
2020/12/24 08:17:38;;;;;;;6.50;2.22;;;;;;;8.09;86.03;99355.03;9770142;28;20055;-65
2020/12/24 08:23:05;;;;;;;5.38;1.00;;;;;;;7.99;86.46;99362.06;9772257;28;20059;-65
2020/12/24 08:28:07;;;;;;;5.10;1.40;;;;;;;7.94;85.54;99359.81;9726943;28;20194;-65
2020/12/24 08:33:26;;;;;;;3.95;1.05;;;;;;;7.75;85.69;99349.91;9832493;28;20176;-65
2020/12/24 08:38:27;;;;;;;2.42;0.90;;;;;;;7.84;85.68;99353.63;9731293;28;20066;-67
2020/12/24 08:43:31;;;;;;;5.78;1.70;;;;;;;7.96;84.58;99360.53;9727054;28;20059;-65
2020/12/24 08:48:34;;;;;;;4.32;0.93;;;;;;;8.07;84.04;99373.72;9713107;28;20692;-65
2020/12/24 08:53:35;;;;;;;3.05;0.93;;;;;;;7.94;83.25;99359.81;9721388;28;20055;-66
2020/12/24 08:58:48;;;;;;;3.45;0.82;;;;;;;8.19;82.83;99357.75;9715783;28;20062;-65
2020/12/24 09:03:49;;;;;;;2.60;0.47;;;;;;;8.42;82.35;99361.09;9733255;28;20062;-72
2020/12/24 09:08:51;;;;;;;3.28;0.50;;;;;;;8.53;80.40;99376.97;9706839;28;20236;-65
2020/12/24 09:13:59;;;;;;;3.40;0.55;;;;;;;8.28;79.31;99352.50;9716310;28;20052;-66
2020/12/24 09:19:05;;;;;;;1.70;0.40;;;;;;;8.44;80.58;99367.16;9740169;28;20477;-66
2020/12/24 09:24:09;;;;;;;1.30;0.40;;;;;;;8.37;79.78;99361.47;9740372;28;20048;-68
2020/12/24 09:29:10;;;;;;;1.98;0.47;;;;;;;8.41;78.76;99360.25;9734221;28;20054;-65
2020/12/24 09:34:11;;;;;;;2.45;0.32;;;;;;;8.45;79.24;99376.75;9713344;28;20096;-66
2020/12/24 09:39:13;;;;;;;2.25;0.50;;;;;;;8.37;79.23;99369.44;9717537;28;20119;-65
2020/12/24 09:44:15;;;;;;;1.58;0.57;;;;;;;8.53;79.00;99381.41;9749500;28;20114;-65
2020/12/24 09:49:17;;;;;;;2.13;0.90;;;;;;;8.46;77.99;99389.88;9746625;28;20062;-65
2020/12/24 09:54:18;;;;;;;2.50;0.38;;;;;;;8.69;77.64;99391.53;9749899;28;20082;-64
2020/12/24 09:59:19;;;;;;;0.40;0.20;;;;;;;9.07;76.63;99390.88;9726090;28;20051;-65
2020/12/24 10:04:21;;;;;;;1.65;0.50;;;;;;;9.33;74.80;99390.38;9712061;28;20113;-65
2020/12/24 10:09:22;;;;;;;1.20;0.40;;;;;;;9.54;73.35;99383.13;9737312;28;20075;-65
2020/12/24 10:14:23;;;;;;;2.08;0.40;;;;;;;9.76;72.58;99375.88;9747554;28;21261;-65
2020/12/24 10:19:24;;;;;;;0.70;0.22;;;;;;;9.82;71.56;99385.97;9760637;28;20505;-65
2020/12/24 10:24:25;;;;;;;1.20;0.40;;;;;;;9.48;71.78;99389.00;9751427;28;20082;-66
2020/12/24 10:29:27;;;;;;;1.38;0.20;;;;;;;9.83;72.44;99414.22;9742834;28;20066;-64
2020/12/24 10:34:28;;;;;;;0.55;0.20;;;;;;;9.97;71.30;99412.09;9747489;28;20529;-65
2020/12/24 10:39:30;;;;;;;1.08;0.20;;;;;;;9.99;70.83;99407.50;9804002;28;20078;-66
2020/12/24 10:44:31;;;;;;;1.55;0.30;;;;;;;9.77;71.64;99409.44;9744811;28;20043;-65
2020/12/24 10:49:32;;;;;;;1.73;0.20;;;;;;;9.72;71.62;99419.66;9779886;28;20495;-66
2020/12/24 10:54:33;;;;;;;1.20;0.35;;;;;;;9.97;71.40;99409.44;9795204;28;20055;-67
2020/12/24 10:59:34;;;;;;;1.23;0.20;;;;;;;11.37;65.82;99395.47;9782881;28;20055;-64
2020/12/24 11:04:36;;;;;;;0.52;0.20;;;;;;;14.53;55.22;99394.81;9753102;28;20420;-66
2020/12/24 11:09:37;;;;;;;1.15;0.40;;;;;;;12.58;59.77;99361.19;9747641;28;20050;-65
2020/12/24 11:14:39;;;;;;;0.60;0.10;;;;;;;14.67;56.64;99385.31;9746549;28;20726;-67
2020/12/24 11:19:40;;;;;;;1.65;0.40;;;;;;;15.75;52.06;99405.25;9726575;28;22217;-66
2020/12/24 11:24:41;;;;;;;0.30;0.10;;;;;;;14.79;53.37;99391.97;9760172;28;20047;-66
2020/12/24 11:29:42;;;;;;;0.65;0.20;;;;;;;12.63;60.21;99403.41;9705307;28;20059;-66
2020/12/24 11:34:44;;;;;;;0.77;0.10;;;;;;;11.52;63.14;99412.63;9741972;28;20051;-65
2020/12/24 11:39:45;;;;;;;0.85;0.40;;;;;;;10.96;66.28;99415.28;9727615;28;20434;-66
2020/12/24 11:44:46;;;;;;;1.30;0.20;;;;;;;11.12;65.84;99414.69;9730771;28;24020;-66
2020/12/24 11:49:47;;;;;;;0.77;0.30;;;;;;;12.10;62.54;99402.53;9744875;28;20122;-66
2020/12/24 11:54:48;;;;;;;0.50;0.20;;;;;;;14.87;54.83;99391.09;9736744;28;20078;-68
2020/12/24 11:59:50;;;;;;;1.77;0.57;;;;;;;16.14;53.70;99417.75;9693207;29;20097;-67
2020/12/24 12:04:51;;;;;;;1.20;0.20;;;;;;;21.04;41.40;99405.03;9711714;28;20062;-67
2020/12/24 12:09:52;;;;;;;0.75;0.30;;;;;;;18.71;44.32;99390.00;9723924;28;24367;-66
2020/12/24 12:14:53;;;;;;;0.30;0.10;;;;;;;17.67;44.11;99404.84;9746289;28;24620;-66
2020/12/24 12:19:54;;;;;;;1.00;0.30;;;;;;;17.41;46.71;99416.09;9743006;28;20097;-66
2020/12/24 12:24:56;;;;;;;0.52;0.13;;;;;;;15.12;49.26;99413.28;9744226;28;20082;-66
2020/12/24 12:30:01;;;;;;;1.35;0.35;;;;;;;13.29;55.13;99411.75;9734807;28;21356;-67
2020/12/24 12:35:02;;;;;;;0.55;0.15;;;;;;;11.62;59.28;99408.06;9751610;28;20137;-67
2020/12/24 12:40:05;;;;;;;0.40;0.10;;;;;;;11.30;62.18;99406.72;9766376;28;20169;-68
2020/12/24 12:45:06;;;;;;;0.80;0.20;;;;;;;10.91;61.51;99406.91;9747559;28;20053;-65
2020/12/24 12:50:13;;;;;;;0.30;0.13;;;;;;;10.96;62.32;99415.28;9746813;28;20063;-66
2020/12/24 12:55:14;;;;;;;1.10;0.20;;;;;;;11.06;62.34;99425.06;9763950;28;20051;-67
2020/12/24 13:00:16;;;;;;;0.70;0.20;;;;;;;11.03;62.70;99412.03;9748415;28;20054;-67
2020/12/24 13:05:17;;;;;;;0.20;0.10;;;;;;;11.06;61.45;99409.09;9740275;28;20058;-66
2020/12/24 13:10:18;;;;;;;0.70;0.30;;;;;;;16.70;48.07;99392.38;9799865;28;20074;-66
2020/12/24 13:15:19;;;;;;;0.25;0.10;;;;;;;20.24;37.70;99399.72;9753226;28;21605;-65
2020/12/24 13:20:21;;;;;;;0.22;0.10;;;;;;;23.45;32.72;99392.38;9767618;28;20106;-67
2020/12/24 13:25:22;;;;;;;0.30;0.10;;;;;;;25.83;28.77;99380.44;9774710;28;22654;-67
2020/12/24 13:30:29;;;;;;;0.38;0.10;;;;;;;24.05;30.19;99391.56;9804216;28;20133;-65
2020/12/24 13:35:31;;;;;;;1.23;0.10;;;;;;;22.85;30.96;99383.03;9779405;28;20146;-66
2020/12/24 13:40:32;;;;;;;0.25;0.05;;;;;;;19.49;35.99;99391.66;9772582;28;21909;-67
2020/12/24 13:45:33;;;;;;;0.80;0.17;;;;;;;17.71;40.08;99394.50;9748749;28;20080;-66
2020/12/24 13:50:35;;;;;;;0.20;0.10;;;;;;;16.01;43.99;99386.13;9789957;28;20129;-67
2020/12/24 13:55:36;;;;;;;0.40;0.32;;;;;;;14.50;47.82;99420.13;9739795;28;20055;-66
2020/12/24 14:00:38;;;;;;;0.38;0.20;;;;;;;12.83;53.27;99420.03;9757418;28;20146;-66
2020/12/24 14:05:40;;;;;;;0.65;0.20;;;;;;;12.50;54.54;99412.66;9750161;28;20059;-67
2020/12/24 14:10:44;;;;;;;1.75;0.90;;;;;;;10.89;58.35;99470.09;9754102;28;25923;-67
2020/12/24 14:15:46;;;;;;;0.40;0.30;;;;;;;10.52;60.69;99473.53;9741208;28;20465;-67
2020/12/24 14:20:47;;;;;;;1.52;0.17;;;;;;;10.25;60.45;99501.69;9743042;28;20568;-65
2020/12/24 14:25:49;;;;;;;0.68;0.10;;;;;;;9.70;62.09;99506.66;9787323;28;21895;-65
2020/12/24 14:30:50;;;;;;;0.20;0.10;;;;;;;9.45;62.88;99532.72;9761037;28;20059;-66
2020/12/24 14:35:51;;;;;;;0.32;0.17;;;;;;;9.26;64.34;99524.66;9744366;28;20059;-66
2020/12/24 14:40:52;;;;;;;1.42;0.30;;;;;;;8.78;66.66;99518.13;9754217;28;20102;-66
2020/12/24 14:45:54;;;;;;;0.30;0.15;;;;;;;8.92;66.79;99528.41;9766378;28;20062;-73
2020/12/24 14:50:56;;;;;;;1.30;0.28;;;;;;;9.09;66.68;99550.84;9756038;28;21554;-70
2020/12/24 14:55:57;;;;;;;0.98;0.30;;;;;;;8.93;66.35;99556.66;9755540;28;20117;-66
2020/12/24 15:00:58;;;;;;;1.00;0.20;;;;;;;8.75;67.28;99569.66;9751005;28;20137;-65
2020/12/24 15:05:59;;;;;;;0.25;0.15;;;;;;;8.91;66.54;99581.63;9756733;28;20059;-66
2020/12/24 15:11:00;;;;;;;2.42;0.60;;;;;;;8.81;66.09;99577.09;9762429;28;20143;-65
2020/12/24 15:16:17;;;;;;;0.47;0.25;;;;;;;8.85;66.08;99582.97;9757503;28;21003;-66
2020/12/24 15:21:18;;;;;;;0.50;0.15;;;;;;;8.71;67.98;99591.25;9727345;28;20082;-65
2020/12/24 15:26:19;;;;;;;0.70;0.30;;;;;;;8.64;67.32;99575.00;9763426;28;20111;-66
2020/12/24 15:31:20;;;;;;;0.65;0.20;;;;;;;8.36;67.39;99563.16;9768036;28;22464;-66
2020/12/24 15:36:22;;;;;;;1.10;0.60;;;;;;;8.56;66.22;99593.38;9756161;28;20061;-65
2020/12/24 15:41:23;;;;;;;8.40;3.97;;;;;;;8.51;66.39;99596.38;9771757;28;20141;-64
2020/12/24 15:46:26;;;;;;;0.90;0.40;;;;;;;8.47;66.54;99611.72;9774282;28;20055;-66
2020/12/24 15:51:28;;;;;;;0.77;0.30;;;;;;;8.35;66.50;99596.78;9738996;28;20051;-65
2020/12/24 15:56:29;;;;;;;1.10;0.30;;;;;;;8.30;66.98;99622.81;9802980;28;20051;-66
2020/12/24 16:01:31;;;;;;;0.63;0.30;;;;;;;8.14;67.14;99605.50;9794652;28;20051;-66
2020/12/24 16:06:42;;;;;;;0.85;0.47;;;;;;;8.42;67.79;99634.25;9740962;28;20055;-64
2020/12/24 16:11:44;;;;;;;0.45;0.30;;;;;;;8.42;67.60;99644.84;9748723;28;20051;-66
2020/12/24 16:16:45;;;;;;;0.90;0.60;;;;;;;8.25;67.99;99622.38;9744999;28;20090;-66
2020/12/24 16:21:46;;;;;;;0.82;0.50;;;;;;;8.36;68.74;99648.88;9733547;28;21571;-67
2020/12/24 16:26:48;;;;;;;2.25;1.50;;;;;;;8.25;68.53;99640.94;9742594;28;20473;-66
2020/12/24 16:31:51;;;;;;;5.88;3.13;;;;;;;8.39;67.71;99647.75;9757630;28;20061;-67
2020/12/24 16:36:56;;;;;;;3.30;3.00;;;;;;;8.18;67.31;99642.38;9733522;28;20063;-66
2020/12/24 16:42:01;;;;;;;1.00;0.80;;;;;;;8.03;66.92;99629.41;9756724;28;20702;-66
2020/12/24 16:47:04;;;;;;;2.15;0.95;;;;;;;8.16;67.04;99676.13;9742744;28;20063;-66
2020/12/24 16:52:05;;;;;;;2.80;1.38;;;;;;;8.07;66.67;99678.53;9733148;28;20149;-66
2020/12/24 16:57:07;;;;;;;2.53;2.33;;;;;;;8.02;67.04;99672.78;9754635;28;20521;-66
2020/12/24 17:02:08;;;;;;;2.53;1.77;;;;;;;8.12;67.10;99681.69;9759954;28;20059;-65
2020/12/24 17:07:10;;;;;;;2.65;2.10;;;;;;;8.11;67.87;99685.28;9755081;28;20293;-66
2020/12/24 17:12:11;;;;;;;3.58;2.40;;;;;;;8.11;68.47;99697.72;9728351;28;20075;-65
2020/12/24 17:17:12;;;;;;;2.40;1.77;;;;;;;7.92;68.51;99663.84;9724371;28;20198;-66
2020/12/24 17:22:13;;;;;;;3.45;2.00;;;;;;;8.07;68.99;99707.69;9742398;28;20602;-65
2020/12/24 17:27:15;;;;;;;1.60;1.05;;;;;;;7.94;69.83;99722.88;9737587;28;20055;-65
2020/12/24 17:32:16;;;;;;;2.25;1.05;;;;;;;7.84;71.21;99720.13;9750518;28;24164;-65
2020/12/24 17:37:17;;;;;;;2.17;1.48;;;;;;;7.81;70.23;99730.09;9720968;28;20115;-66
2020/12/24 17:42:18;;;;;;;1.98;1.60;;;;;;;7.70;71.01;99729.13;9749161;28;20047;-66
2020/12/24 17:47:23;;;;;;;2.60;1.80;;;;;;;7.77;71.32;99762.13;9940033;28;20150;-66
2020/12/24 17:52:26;;;;;;;1.90;1.52;;;;;;;7.78;71.79;99763.81;9724637;28;20097;-65
2020/12/24 17:57:27;;;;;;;2.40;1.48;;;;;;;7.79;72.22;99765.50;9717433;28;20054;-66
2020/12/24 18:02:33;;;;;;;3.25;1.05;;;;;;;7.47;71.99;99764.47;9714869;28;20059;-67
2020/12/24 18:07:35;;;;;;;2.03;1.30;;;;;;;7.57;72.64;99778.72;9754613;28;20066;-65
2020/12/24 18:12:36;;;;;;;1.77;0.70;;;;;;;7.54;72.76;99781.59;9767852;28;20055;-66
2020/12/24 18:17:38;;;;;;;1.92;1.52;;;;;;;7.69;71.72;99791.03;9795596;28;22662;-66
2020/12/24 18:22:39;;;;;;;1.75;1.00;;;;;;;7.63;72.46;99796.78;9779425;28;20835;-66
2020/12/24 18:27:40;;;;;;;0.93;0.70;;;;;;;7.56;70.81;99793.75;9738228;28;21415;-65
2020/12/24 18:32:45;;;;;;;1.23;0.45;;;;;;;7.23;70.41;99794.47;9791874;28;20070;-67
2020/12/24 18:37:46;;;;;;;;;;;;;;;7.04;71.59;99811.69;9803400;28;20512;-66
2020/12/24 18:42:48;;;;;;;1.58;0.75;;;;;;;7.21;71.17;99791.09;9738944;28;19944;-66
2020/12/24 18:47:49;;;;;;;1.08;0.80;;;;;;;7.40;71.09;99817.91;9754713;28;20173;-66
2020/12/24 18:52:50;;;;;;;1.50;0.82;;;;;;;7.39;71.06;99821.50;9764644;28;20063;-65
2020/12/24 18:57:51;;;;;;;1.75;1.42;;;;;;;7.44;71.91;99832.56;9781129;28;20151;-65
2020/12/24 19:02:53;;;;;;;1.20;0.85;;;;;;;7.46;71.96;99836.91;9747972;28;20229;-65
2020/12/24 19:07:54;;;;;;;1.05;0.63;;;;;;;7.47;72.35;99830.69;9730621;28;20129;-64
2020/12/24 19:12:55;;;;;;;2.58;1.77;;;;;;;7.32;72.51;99814.94;9746712;28;22782;-65
2020/12/24 19:17:56;;;;;;;2.85;2.20;;;;;;;7.42;72.49;99829.22;9736213;28;22056;-65
2020/12/24 19:22:57;;;;;;;2.55;2.35;;;;;;;7.47;73.12;99833.31;9748655;28;20062;-66
2020/12/24 19:27:59;;;;;;;3.40;1.90;;;;;;;7.42;72.82;99829.22;9731475;28;20234;-65
2020/12/24 19:33:10;;;;;;;2.63;2.40;;;;;;;7.33;73.40;99837.00;9732546;28;20079;-65
2020/12/24 19:38:11;;;;;;;2.45;1.85;;;;;;;7.26;73.50;99821.53;9715279;29;20056;-66
2020/12/24 19:43:13;;;;;;;3.38;2.83;;;;;;;7.34;73.88;99823.66;9733797;28;20130;-65
2020/12/24 19:48:14;;;;;;;3.58;2.65;;;;;;;7.39;74.15;99837.38;9739730;28;20055;-65
2020/12/24 19:53:15;;;;;;;3.28;2.70;;;;;;;7.36;74.27;99842.91;9731998;28;20051;-66
2020/12/24 19:58:18;;;;;;;3.13;2.78;;;;;;;7.25;74.36;99841.06;9753403;28;20061;-67
2020/12/24 20:03:28;;;;;;;3.95;3.55;;;;;;;7.33;74.78;99831.72;9744925;28;20064;-67
2020/12/24 20:08:29;;;;;;;4.47;3.05;;;;;;;6.94;76.31;99842.44;9734864;28;20078;-66
2020/12/24 20:13:34;;;;;;;4.40;3.15;;;;;;;7.16;74.93;99840.88;9778291;28;20479;-66
2020/12/24 20:18:37;;;;;;;4.13;3.58;;;;;;;7.25;74.56;99845.47;9744917;28;20095;-65
2020/12/24 20:23:38;;;;;;;4.30;3.78;;;;;;;7.15;74.43;99845.31;9762991;28;20546;-65
2020/12/24 20:28:41;;;;;;;5.93;5.00;;;;;;;7.36;74.44;99853.50;9770752;28;20156;-66
2020/12/24 20:33:48;;;;;;;6.68;4.32;;;;;;;7.32;73.11;99859.97;9765240;28;20055;-66
2020/12/24 20:38:50;;;;;;;7.07;4.10;;;;;;;7.22;73.54;99841.28;9752141;28;20513;-65
2020/12/24 20:43:53;;;;;;;6.55;4.65;;;;;;;7.32;73.05;99856.47;9752554;28;20059;-66
2020/12/24 20:48:54;;;;;;;7.10;4.50;;;;;;;7.31;73.08;99850.34;9750914;28;24506;-65
2020/12/24 20:53:55;;;;;;;6.30;4.68;;;;;;;7.33;73.32;99869.59;9769165;28;20106;-66
2020/12/24 20:58:58;;;;;;;8.50;5.10;;;;;;;7.29;73.00;99873.44;9768643;28;20071;-66
2020/12/24 21:04:10;;;;;;;11.82;7.45;;;;;;;7.34;73.54;99881.91;9779413;28;20050;-66
2020/12/24 21:09:11;;;;;;;9.02;5.22;;;;;;;7.42;73.75;99873.38;9792363;28;20082;-66
2020/12/24 21:14:13;;;;;;;7.43;4.78;;;;;;;7.46;73.75;99884.59;9783765;28;20055;-65
2020/12/24 21:19:17;;;;;;;5.55;4.20;;;;;;;7.42;73.46;99874.22;9747216;28;20106;-65
2020/12/24 21:24:19;;;;;;;9.20;5.87;;;;;;;7.43;72.75;99885.66;9743006;28;20055;-66
2020/12/24 21:29:20;;;;;;;6.22;4.68;;;;;;;7.53;73.17;99884.03;9764640;28;21021;-66
2020/12/24 21:34:30;;;;;;;6.80;4.57;;;;;;;7.42;73.13;99871.56;9754711;28;20561;-65
2020/12/24 21:39:31;;;;;;;6.60;5.10;;;;;;;7.42;73.22;99890.13;9745236;28;24035;-65
2020/12/24 21:44:33;;;;;;;8.48;5.13;;;;;;;7.40;72.57;99892.03;9756277;28;20063;-66
2020/12/24 21:49:34;;;;;;;7.05;5.13;;;;;;;7.41;72.16;99896.34;9749739;28;20137;-67
2020/12/24 21:54:35;;;;;;;9.05;4.97;;;;;;;7.46;71.98;99911.06;9770361;28;20078;-65
2020/12/24 21:59:36;;;;;;;7.07;4.65;;;;;;;7.33;71.45;99893.44;9767266;28;20055;-65
2020/12/24 22:04:48;;;;;;;8.57;6.97;;;;;;;7.38;71.71;99909.81;9741678;28;20082;-65
2020/12/24 22:09:50;;;;;;;5.85;4.90;;;;;;;7.52;71.59;99927.38;9739444;28;20133;-66
2020/12/24 22:14:52;;;;;;;5.60;4.97;;;;;;;7.56;72.45;99917.41;9762672;28;20082;-65
2020/12/24 22:19:53;;;;;;;9.55;5.05;;;;;;;7.58;72.39;99918.13;9753322;28;20137;-66
2020/12/24 22:24:55;;;;;;;6.40;4.13;;;;;;;7.41;71.89;99924.66;9740197;28;23011;-65
2020/12/24 22:29:57;;;;;;;7.72;4.85;;;;;;;7.15;72.24;99929.19;9749681;28;20134;-66
2020/12/24 22:35:12;;;;;;;6.15;4.50;;;;;;;7.27;74.04;99938.91;9758599;28;20118;-66
2020/12/24 22:40:14;;;;;;;8.17;5.00;;;;;;;7.42;72.67;99948.38;9758098;28;20060;-66
2020/12/24 22:45:16;;;;;;;9.88;4.93;;;;;;;7.45;71.46;99931.44;9748940;28;20106;-66
2020/12/24 22:50:18;;;;;;;5.53;4.10;;;;;;;7.21;70.97;99956.06;9773526;28;20059;-67
2020/12/24 22:55:19;;;;;;;5.55;4.97;;;;;;;6.73;74.09;99969.97;9773612;28;20058;-66
2020/12/24 23:00:26;;;;;;;5.80;4.22;;;;;;;7.00;72.20;99953.13;9800400;28;22789;-66
2020/12/24 23:05:31;;;;;;;6.38;4.03;;;;;;;6.87;72.04;99953.13;9746295;28;20066;-66
2020/12/24 23:10:33;;;;;;;6.80;4.07;;;;;;;6.79;72.49;99947.53;9790707;28;20397;-66
2020/12/24 23:15:34;;;;;;;4.43;3.80;;;;;;;6.75;72.34;99948.69;9763160;28;20059;-66
2020/12/24 23:20:36;;;;;;;6.28;4.20;;;;;;;6.85;71.25;99964.81;9783934;28;20051;-66
2020/12/24 23:25:37;;;;;;;5.78;3.80;;;;;;;6.62;72.94;99961.94;9803845;28;20059;-65
2020/12/24 23:30:39;;;;;;;4.85;3.53;;;;;;;6.21;72.25;99949.72;9795600;28;20058;-65
2020/12/24 23:35:49;;;;;;;6.35;3.85;;;;;;;6.54;73.49;99967.75;9785189;28;20067;-65
2020/12/24 23:40:51;;;;;;;5.07;3.38;;;;;;;6.67;72.23;99957.16;9810678;28;20114;-65
2020/12/24 23:45:52;;;;;;;8.38;3.60;;;;;;;6.28;72.80;99960.75;9825848;28;20050;-67
2020/12/24 23:50:53;;;;;;;4.43;4.03;;;;;;;6.41;73.89;99976.59;9787318;28;20106;-67
2020/12/24 23:55:55;;;;;;;5.20;3.75;;;;;;;6.16;73.20;99980.91;9790782;28;20107;-67
